Terminal Aerodrome Forecast
Issued by NWS Pittsburgh, PA

Current Version | Previous Version | Graphics & Text | Print | Product List | Glossary On
Versions: 1 2 3 4 5 6 7 8 9 10 11 12 13 14 15 16 17 18 19 20 21 22 23 24 25 26 27 28 29 30 31 32 33 34 35 36 37
315
FTUS41 KPBZ 162326
TAFPIT
TAF
KPIT 162326Z 1700/1806 12003KT P6SM VCSH OVC019
     FM170800 13003KT 2SM -RA OVC006
     FM171500 17007KT 3SM -SHRA OVC008
     FM171800 19009KT 5SM -SHRA OVC010
     FM180000 23008KT P6SM OVC015=

USA.gov is the U.S. government's official web portal to all federal, state and local government web resources and services.